createdAt,value
2023-07-15T19:57:32.971Z,64.45
2023-07-15T20:00:23.759Z,65.82
2023-07-15T20:03:14.667Z,66.21
2023-07-15T20:06:05.460Z,66.59
2023-07-15T20:08:56.257Z,66.30
2023-07-15T20:11:46.887Z,67.43
2023-07-15T20:14:37.664Z,66.65
2023-07-15T20:17:28.510Z,66.73
2023-07-15T20:20:19.267Z,66.81
2023-07-15T20:23:10.160Z,66.63
2023-07-15T20:26:04.741Z,66.84
2023-07-15T20:28:55.675Z,67.12
2023-07-15T20:31:46.452Z,67.49
2023-07-15T20:34:37.474Z,67.70
2023-07-15T20:37:28.124Z,67.96
2023-07-15T20:40:18.934Z,68.25
2023-07-15T20:43:09.634Z,68.03
2023-07-15T20:46:00.458Z,68.44
2023-07-15T20:48:51.235Z,68.23
2023-07-15T20:51:42.178Z,69.86
2023-07-15T20:54:32.902Z,70.11
2023-07-15T20:57:23.733Z,70.15
2023-07-15T21:00:14.713Z,69.91
2023-07-15T21:03:05.603Z,70.04
2023-07-15T21:06:01.348Z,69.20
2023-07-15T21:08:52.350Z,68.49
2023-07-15T21:11:43.002Z,67.92
2023-07-15T21:14:33.829Z,67.59
2023-07-15T21:17:24.637Z,67.30
2023-07-15T21:20:17.064Z,67.28
2023-07-15T21:23:08.236Z,67.31
2023-07-15T21:25:59.851Z,67.19
2023-07-15T21:28:51.681Z,67.34
2023-07-15T21:31:42.574Z,67.30
2023-07-15T21:34:33.838Z,67.81
2023-07-15T21:37:24.585Z,67.87
2023-07-15T21:40:16.313Z,68.08
2023-07-15T21:43:06.965Z,68.29
2023-07-15T21:45:57.891Z,68.53
2023-07-15T21:48:48.693Z,68.56
2023-07-15T21:51:39.456Z,68.52
2023-07-15T21:54:30.100Z,68.43
2023-07-15T21:57:20.767Z,68.55
2023-07-15T22:00:19.782Z,68.64
2023-07-15T22:03:10.613Z,69.04
2023-07-15T22:06:01.432Z,69.38
2023-07-15T22:08:52.295Z,69.99
2023-07-15T22:11:42.985Z,70.14
2023-07-15T22:14:33.815Z,70.57
2023-07-15T22:17:24.751Z,71.07
2023-07-15T22:20:15.438Z,71.37
2023-07-15T22:23:07.441Z,71.34
2023-07-15T22:25:58.693Z,71.03
2023-07-15T22:28:49.413Z,71.60
2023-07-15T22:31:40.178Z,72.10
2023-07-15T22:34:35.648Z,72.45
2023-07-15T22:37:26.732Z,72.69
2023-07-15T22:40:18.975Z,72.52
2023-07-15T22:43:09.675Z,72.66
2023-07-15T22:46:00.379Z,72.71
2023-07-15T22:48:51.162Z,72.89
2023-07-15T22:51:42.000Z,72.80
2023-07-15T22:54:32.691Z,72.94
2023-07-15T22:57:24.066Z,73.06
2023-07-15T23:00:15.120Z,73.19
2023-07-15T23:03:06.044Z,73.35
2023-07-15T23:05:56.956Z,73.56
2023-07-15T23:08:47.803Z,73.67
2023-07-15T23:11:38.567Z,74.06
2023-07-15T23:14:29.409Z,74.03
2023-07-15T23:17:20.984Z,74.11
2023-07-15T23:20:12.082Z,74.26
2023-07-15T23:23:15.801Z,74.38
2023-07-15T23:26:07.873Z,74.40
2023-07-15T23:28:58.549Z,74.21
2023-07-15T23:31:49.276Z,74.12
2023-07-15T23:34:39.918Z,74.25
2023-07-15T23:37:31.164Z,74.28
2023-07-15T23:40:21.902Z,74.26
2023-07-15T23:43:12.710Z,74.57
2023-07-15T23:46:03.348Z,74.55
2023-07-15T23:48:54.215Z,74.73
2023-07-15T23:51:44.909Z,74.83
2023-07-15T23:54:35.804Z,74.85
2023-07-15T23:57:26.597Z,74.96
